createdAt,value
2023-05-06T05:27:50.371Z,17.97
2023-05-06T05:30:19.145Z,14.13
2023-05-06T05:32:46.784Z,17.77
2023-05-06T05:35:16.118Z,14.83
2023-05-06T05:37:44.875Z,13.40
2023-05-06T05:40:12.954Z,15.33
2023-05-06T05:42:42.039Z,14.13
2023-05-06T05:45:21.109Z,15.37
2023-05-06T05:47:49.251Z,15.73
2023-05-06T05:50:17.444Z,16.17
2023-05-06T05:52:46.083Z,15.67
2023-05-06T05:55:13.992Z,15.33
2023-05-06T05:57:44.892Z,14.03
2023-05-06T06:00:13.820Z,17.27
2023-05-06T06:02:48.503Z,18.07
2023-05-06T06:05:20.357Z,15.67
2023-05-06T06:07:47.801Z,15.70
2023-05-06T06:10:15.698Z,17.73
2023-05-06T06:12:44.691Z,15.67
2023-05-06T06:15:14.774Z,18.80
2023-05-06T06:17:44.280Z,15.10
2023-05-06T06:20:14.179Z,15.23
2023-05-06T06:22:42.002Z,15.93
2023-05-06T06:25:10.128Z,16.83
2023-05-06T06:27:38.927Z,17.70
2023-05-06T06:30:08.794Z,18.07
2023-05-06T06:32:36.180Z,18.53
2023-05-06T06:35:03.542Z,18.87
2023-05-06T06:37:32.206Z,15.63
2023-05-06T06:39:59.524Z,17.13
2023-05-06T06:42:27.318Z,20.37
2023-05-06T06:45:10.102Z,19.77
2023-05-06T06:47:37.757Z,18.27
2023-05-06T06:50:05.695Z,15.40
2023-05-06T06:52:34.443Z,15.97
2023-05-06T06:55:02.352Z,18.47
2023-05-06T06:57:29.719Z,17.30
2023-05-06T06:59:57.076Z,18.43
2023-05-06T07:02:24.545Z,17.83
2023-05-06T07:04:52.138Z,15.90
2023-05-06T07:07:19.491Z,17.50
2023-05-06T07:09:48.158Z,15.43
2023-05-06T07:12:15.506Z,18.70
2023-05-06T07:14:42.832Z,18.53
2023-05-06T07:17:10.334Z,16.43
2023-05-06T07:19:37.810Z,20.23
2023-05-06T07:22:05.505Z,17.77
2023-05-06T07:24:33.144Z,19.70
2023-05-06T07:27:02.918Z,18.40
2023-05-06T07:29:30.273Z,19.87
2023-05-06T07:31:57.896Z,18.17
2023-05-06T07:34:25.294Z,18.70
2023-05-06T07:36:52.728Z,19.33
2023-05-06T07:39:20.094Z,20.13
2023-05-06T07:41:47.579Z,19.97
2023-05-06T07:44:16.256Z,17.90
2023-05-06T07:46:43.699Z,19.10
2023-05-06T07:49:11.106Z,18.20
2023-05-06T07:51:38.461Z,21.30
2023-05-06T07:54:06.179Z,19.77
2023-05-06T07:56:33.542Z,19.90
2023-05-06T07:59:01.126Z,18.57
2023-05-06T08:01:30.068Z,22.13
2023-05-06T08:03:57.496Z,20.67
2023-05-06T08:06:25.047Z,18.60
2023-05-06T08:08:52.407Z,19.73
2023-05-06T08:11:19.738Z,21.23
2023-05-06T08:13:47.139Z,19.77
2023-05-06T08:16:14.555Z,21.10
2023-05-06T08:18:43.268Z,20.10
2023-05-06T08:21:11.519Z,22.27
2023-05-06T08:23:38.931Z,20.00
2023-05-06T08:26:06.293Z,20.07
2023-05-06T08:28:33.742Z,20.97
2023-05-06T08:31:01.115Z,20.90
2023-05-06T08:33:30.618Z,19.17
2023-05-06T08:35:59.740Z,24.13
2023-05-06T08:38:27.247Z,19.00
2023-05-06T08:40:55.170Z,20.57
2023-05-06T08:43:23.114Z,22.60
2023-05-06T08:45:50.685Z,20.97
2023-05-06T08:48:18.353Z,20.27
2023-05-06T08:50:45.836Z,20.70
2023-05-06T08:53:14.779Z,20.53
2023-05-06T08:55:42.626Z,21.83
2023-05-06T08:58:12.328Z,22.67
2023-05-06T09:00:40.087Z,19.80
2023-05-06T09:03:07.576Z,21.50
2023-05-06T09:05:35.002Z,23.33
2023-05-06T09:08:02.344Z,18.97
2023-05-06T09:10:34.048Z,19.53
2023-05-06T09:13:01.468Z,21.43
2023-05-06T09:15:39.674Z,21.47
2023-05-06T09:18:07.302Z,19.90
2023-05-06T09:20:34.944Z,21.00
2023-05-06T09:23:03.685Z,19.80
2023-05-06T09:25:33.797Z,21.03
2023-05-06T09:28:04.664Z,21.40
2023-05-06T09:30:32.081Z,21.77
2023-05-06T09:32:59.822Z,19.13
2023-05-06T09:35:28.068Z,19.77
2023-05-06T09:37:55.438Z,18.20
2023-05-06T09:40:25.826Z,18.70
2023-05-06T09:42:54.647Z,19.37
2023-05-06T09:45:23.054Z,20.23
2023-05-06T09:47:50.669Z,19.43
2023-05-06T09:50:20.042Z,18.33
2023-05-06T09:52:49.255Z,19.83
2023-05-06T09:55:18.096Z,15.37
2023-05-06T09:57:45.723Z,17.93
2023-05-06T10:00:15.410Z,16.87
2023-05-06T10:02:43.367Z,16.17
2023-05-06T10:05:12.538Z,16.30
2023-05-06T10:07:40.880Z,19.57
2023-05-06T10:10:09.588Z,14.03
2023-05-06T10:12:37.410Z,15.17
2023-05-06T10:15:05.405Z,14.20
2023-05-06T10:17:35.005Z,15.97
2023-05-06T10:20:04.961Z,15.17
2023-05-06T10:22:38.737Z,14.90
2023-05-06T10:25:13.049Z,17.17
2023-05-06T10:27:41.628Z,15.80
2023-05-06T10:30:10.378Z,17.67
2023-05-06T10:32:42.630Z,17.23
2023-05-06T10:35:13.188Z,17.97
2023-05-06T10:37:41.648Z,20.03
2023-05-06T10:40:10.066Z,17.70
2023-05-06T10:42:37.399Z,16.87
2023-05-06T10:45:05.330Z,18.43
2023-05-06T10:47:52.103Z,17.97
2023-05-06T10:50:21.825Z,21.40
2023-05-06T10:52:51.820Z,17.53
2023-05-06T10:55:29.581Z,17.10
2023-05-06T10:57:57.774Z,17.30
2023-05-06T11:00:25.145Z,14.13
2023-05-06T11:02:56.187Z,16.77
2023-05-06T11:05:25.768Z,15.23
2023-05-06T11:07:53.788Z,16.20
2023-05-06T11:10:32.521Z,16.17
2023-05-06T11:13:00.404Z,24.30
2023-05-06T11:15:39.020Z,16.83
2023-05-06T11:18:25.530Z,14.80
2023-05-06T11:21:23.134Z,15.80
2023-05-06T11:24:08.579Z,10.07
2023-05-06T11:26:36.142Z,7.97
2023-05-06T11:29:04.153Z,8.70
2023-05-06T11:31:38.554Z,11.80
2023-05-06T11:34:08.644Z,8.43
2023-05-06T11:36:37.009Z,8.87
2023-05-06T11:39:06.473Z,9.07
2023-05-06T11:41:35.568Z,9.30
2023-05-06T11:44:02.896Z,13.83
2023-05-06T11:46:33.023Z,12.33
2023-05-06T11:49:00.854Z,11.70
2023-05-06T11:51:28.513Z,12.27
2023-05-06T11:54:05.707Z,13.00
2023-05-06T11:56:44.038Z,12.37
2023-05-06T11:59:11.701Z,10.50
2023-05-06T12:01:41.696Z,12.20
2023-05-06T12:04:09.415Z,11.50
2023-05-06T12:06:37.008Z,12.73
2023-05-06T12:09:05.187Z,9.87
2023-05-06T12:11:33.347Z,11.20
2023-05-06T12:14:02.362Z,9.40
2023-05-06T12:16:30.041Z,10.30
2023-05-06T12:18:57.511Z,13.03
2023-05-06T12:21:26.154Z,10.17
2023-05-06T12:23:53.748Z,8.97
2023-05-06T12:26:22.149Z,10.10
2023-05-06T12:31:43.869Z,9.03
2023-05-06T12:34:11.322Z,10.13
2023-05-06T12:36:42.604Z,14.30
2023-05-06T12:39:10.424Z,9.27
2023-05-06T12:41:38.950Z,10.97
2023-05-06T12:44:21.419Z,11.03
2023-05-06T12:46:53.410Z,8.70
2023-05-06T12:49:20.790Z,10.90
2023-05-06T12:51:48.210Z,13.23
2023-05-06T12:54:31.089Z,9.87
2023-05-06T12:56:58.691Z,10.00
2023-05-06T12:59:26.882Z,10.17
2023-05-06T13:01:55.623Z,8.83
2023-05-06T13:04:23.067Z,10.83
2023-05-06T13:06:50.745Z,10.23
2023-05-06T13:09:18.221Z,13.27
2023-05-06T13:11:45.922Z,10.07
2023-05-06T13:14:16.628Z,7.37
2023-05-06T13:16:44.297Z,15.50
2023-05-06T13:19:30.820Z,9.13
2023-05-06T13:22:00.293Z,8.83
2023-05-06T13:24:27.956Z,8.47
2023-05-06T13:26:56.315Z,8.90
2023-05-06T13:29:24.405Z,6.50
2023-05-06T13:31:51.954Z,8.23
2023-05-06T13:34:20.853Z,7.30
2023-05-06T13:36:49.624Z,9.23
2023-05-06T13:39:17.289Z,6.60
2023-05-06T13:41:46.838Z,6.83
2023-05-06T13:44:14.183Z,9.10
2023-05-06T13:46:42.516Z,8.13
2023-05-06T13:49:11.474Z,5.77
2023-05-06T13:51:40.535Z,9.17
2023-05-06T13:54:07.906Z,6.47
2023-05-06T13:56:35.625Z,8.50
2023-05-06T13:59:02.964Z,8.20
2023-05-06T14:01:30.377Z,16.07
2023-05-06T14:03:57.735Z,12.77
2023-05-06T14:06:25.082Z,8.27
2023-05-06T14:08:53.741Z,9.23
2023-05-06T14:11:21.172Z,9.37
2023-05-06T14:13:48.966Z,9.27
2023-05-06T14:16:16.491Z,9.50
2023-05-06T14:18:43.958Z,8.13
2023-05-06T14:21:11.538Z,8.23
2023-05-06T14:23:38.925Z,9.63
2023-05-06T14:26:07.674Z,10.17
2023-05-06T14:28:35.299Z,13.00
2023-05-06T14:31:02.738Z,16.17
2023-05-06T14:33:30.057Z,16.57
2023-05-06T14:35:58.293Z,14.17
2023-05-06T14:38:25.637Z,14.90
2023-05-06T14:40:53.021Z,13.73
2023-05-06T14:43:21.696Z,16.77
2023-05-06T14:45:49.107Z,17.10
2023-05-06T14:48:16.597Z,16.87
2023-05-06T14:50:43.953Z,18.50
2023-05-06T14:53:11.358Z,18.57
2023-05-06T14:55:38.707Z,21.07
2023-05-06T14:58:06.065Z,17.83
2023-05-06T15:00:34.864Z,20.77
2023-05-06T15:03:02.260Z,19.17
2023-05-06T15:05:29.716Z,19.30
2023-05-06T15:07:57.081Z,17.17
2023-05-06T15:10:24.442Z,21.93
2023-05-06T15:12:51.800Z,17.80
2023-05-06T15:15:19.223Z,17.63
2023-05-06T15:17:47.915Z,19.70
2023-05-06T15:20:16.179Z,19.73
2023-05-06T15:22:43.518Z,17.07
2023-05-06T15:25:19.463Z,17.90
2023-05-06T15:27:53.853Z,18.33
2023-05-06T15:30:21.378Z,20.97
2023-05-06T15:32:50.086Z,19.33
2023-05-06T15:35:17.435Z,24.93
2023-05-06T15:37:44.847Z,19.40
2023-05-06T15:40:13.011Z,23.17
2023-05-06T15:42:40.871Z,24.43
2023-05-06T15:45:08.931Z,20.20
2023-05-06T15:47:36.411Z,19.37
2023-05-06T15:50:16.446Z,23.77
2023-05-06T15:52:48.496Z,19.17
2023-05-06T15:55:16.871Z,21.10
2023-05-06T15:57:46.067Z,21.23
2023-05-06T16:00:14.960Z,20.83
2023-05-06T16:02:43.068Z,27.60
2023-05-06T16:05:12.053Z,23.27
2023-05-06T16:07:42.188Z,23.37
2023-05-06T16:10:09.966Z,22.03
2023-05-06T16:12:37.635Z,25.63
2023-05-06T16:15:05.379Z,23.50
2023-05-06T16:17:37.302Z,23.77
2023-05-06T16:20:05.281Z,22.00
2023-05-06T16:22:34.055Z,24.13
2023-05-06T16:25:01.382Z,20.27
2023-05-06T16:27:28.821Z,20.50
2023-05-06T16:29:56.371Z,27.17
2023-05-06T16:32:23.929Z,23.43
2023-05-06T16:34:51.451Z,21.57
2023-05-06T16:37:18.875Z,22.13
2023-05-06T16:39:47.525Z,23.67
2023-05-06T16:42:14.882Z,20.93
2023-05-06T16:44:42.205Z,24.10
2023-05-06T16:47:09.619Z,22.07
2023-05-06T16:49:37.050Z,20.73
2023-05-06T16:52:04.619Z,21.87
2023-05-06T16:54:31.956Z,23.70
2023-05-06T16:57:00.855Z,18.70
2023-05-06T16:59:28.289Z,17.00
2023-05-06T17:01:55.642Z,18.33
2023-05-06T17:04:24.512Z,19.40
2023-05-06T17:06:51.879Z,17.90
2023-05-06T17:09:19.571Z,17.40
2023-05-06T17:11:47.009Z,20.10
2023-05-06T17:14:15.674Z,19.30
2023-05-06T17:16:43.977Z,16.87
2023-05-06T17:19:11.736Z,19.13
2023-05-06T17:21:39.105Z,20.03
2023-05-06T17:24:06.643Z,17.43
2023-05-06T17:26:34.714Z,19.47
2023-05-06T17:29:02.371Z,16.57
2023-05-06T17:31:31.094Z,21.67
2023-05-06T17:33:58.469Z,20.80
2023-05-06T17:36:25.946Z,22.20
2023-05-06T17:39:01.992Z,21.17
2023-05-06T17:41:29.355Z,18.87
2023-05-06T17:43:56.971Z,20.50
2023-05-06T17:46:24.440Z,19.70
2023-05-06T17:48:53.374Z,21.23
2023-05-06T17:51:20.873Z,21.97
2023-05-06T17:53:48.211Z,20.97
2023-05-06T17:56:16.533Z,19.67
2023-05-06T17:58:43.863Z,20.57
2023-05-06T18:01:11.576Z,17.20
2023-05-06T18:03:40.006Z,20.87
2023-05-06T18:06:09.647Z,22.17
2023-05-06T18:08:36.978Z,22.57
2023-05-06T18:11:04.356Z,22.57
2023-05-06T18:13:33.251Z,20.53
2023-05-06T18:16:00.661Z,23.03
2023-05-06T18:18:28.166Z,22.20
2023-05-06T18:20:55.520Z,22.73
2023-05-06T18:23:24.208Z,25.53
2023-05-06T18:25:51.899Z,22.50
2023-05-06T18:28:19.359Z,26.50
2023-05-06T18:30:46.705Z,24.40
2023-05-06T18:33:14.469Z,24.37
2023-05-06T18:35:41.891Z,24.00
2023-05-06T18:38:10.665Z,21.67
2023-05-06T18:40:41.030Z,19.23
2023-05-06T18:43:08.922Z,18.33
2023-05-06T18:45:37.667Z,17.43
2023-05-06T18:48:05.492Z,19.07
2023-05-06T18:50:32.907Z,20.23
2023-05-06T18:53:00.319Z,19.17
2023-05-06T18:55:27.802Z,17.83
2023-05-06T18:57:56.471Z,20.13
2023-05-06T19:00:24.196Z,21.97
2023-05-06T19:02:51.601Z,20.70
2023-05-06T19:05:19.185Z,22.07
2023-05-06T19:07:46.504Z,22.17
2023-05-06T19:10:13.897Z,22.57
2023-05-06T19:12:41.571Z,21.13
2023-05-06T19:15:12.242Z,20.53
2023-05-06T19:17:39.926Z,21.03
2023-05-06T19:20:08.074Z,23.63
2023-05-06T19:22:35.423Z,20.67
2023-05-06T19:25:02.836Z,22.77
2023-05-06T19:27:30.216Z,20.23
2023-05-06T19:29:57.547Z,21.17
2023-05-06T19:32:26.342Z,23.70
2023-05-06T19:34:53.698Z,20.33
2023-05-06T19:37:21.031Z,20.00
2023-05-06T19:39:49.476Z,22.07
2023-05-06T19:42:16.956Z,21.57
2023-05-06T19:44:44.278Z,20.83
2023-05-06T19:47:12.633Z,20.20
2023-05-06T19:49:41.274Z,21.63
2023-05-06T19:52:08.776Z,19.90
2023-05-06T19:54:36.114Z,21.37
2023-05-06T19:57:03.454Z,21.47
2023-05-06T19:59:30.802Z,21.93
2023-05-06T20:02:01.601Z,21.23
2023-05-06T20:04:28.990Z,17.83
2023-05-06T20:06:57.815Z,19.80
2023-05-06T20:09:25.209Z,16.53
2023-05-06T20:11:52.567Z,16.60
2023-05-06T20:14:19.895Z,20.00
2023-05-06T20:16:47.418Z,18.90
2023-05-06T20:19:14.883Z,20.27
2023-05-06T20:21:42.223Z,15.50
2023-05-06T20:24:11.451Z,18.03
2023-05-06T20:26:38.825Z,15.60
2023-05-06T20:29:06.677Z,16.97
2023-05-06T20:31:34.860Z,18.60
2023-05-06T20:34:02.208Z,18.53
2023-05-06T20:36:29.562Z,17.40
2023-05-06T20:38:57.086Z,19.43
2023-05-06T20:41:26.298Z,19.17
2023-05-06T20:43:53.759Z,19.13
2023-05-06T20:46:21.654Z,20.00
2023-05-06T20:48:51.313Z,17.13
2023-05-06T20:51:18.777Z,19.93
2023-05-06T20:53:47.387Z,19.43
2023-05-06T20:56:18.005Z,18.57
2023-05-06T20:58:46.666Z,17.20
2023-05-06T21:01:14.077Z,17.97
2023-05-06T21:03:41.860Z,19.17
2023-05-06T21:06:09.365Z,17.77
2023-05-06T21:08:36.702Z,21.03
2023-05-06T21:11:04.056Z,20.33
2023-05-06T21:13:31.379Z,18.33
2023-05-06T21:16:00.070Z,19.67
2023-05-06T21:18:28.390Z,16.07
2023-05-06T21:20:56.004Z,17.37
2023-05-06T21:23:23.341Z,16.40
2023-05-06T21:25:50.923Z,15.73
2023-05-06T21:28:18.514Z,14.30
2023-05-06T21:30:45.911Z,15.97
2023-05-06T21:33:14.590Z,14.17
2023-05-06T21:35:41.917Z,16.07
2023-05-06T21:38:10.000Z,15.23
2023-05-06T21:40:37.398Z,16.27
2023-05-06T21:43:04.763Z,15.13
2023-05-06T21:45:32.126Z,14.47
2023-05-06T21:47:59.526Z,14.90
2023-05-06T21:50:28.455Z,13.20
2023-05-06T21:52:55.908Z,13.87
2023-05-06T21:55:23.448Z,13.90
2023-05-06T21:57:51.110Z,15.87
2023-05-06T22:00:18.780Z,14.60
2023-05-06T22:02:46.376Z,17.47
2023-05-06T22:05:13.975Z,16.03
2023-05-06T22:07:42.685Z,14.03
2023-05-06T22:10:10.170Z,16.03
2023-05-06T22:12:37.692Z,11.53
2023-05-06T22:15:05.448Z,13.83
2023-05-06T22:17:34.614Z,14.77
2023-05-06T22:20:02.799Z,13.37
2023-05-06T22:22:30.644Z,13.60
2023-05-06T22:24:59.286Z,12.07
2023-05-06T22:27:26.766Z,13.60
2023-05-06T22:29:54.113Z,12.73
2023-05-06T22:32:21.960Z,12.10
2023-05-06T22:34:49.836Z,10.80
2023-05-06T22:37:17.344Z,10.40
2023-05-06T22:39:44.729Z,11.30
2023-05-06T22:42:13.522Z,11.17
2023-05-06T22:44:41.045Z,12.63
2023-05-06T22:47:09.043Z,10.60
2023-05-06T22:49:36.448Z,8.60
2023-05-06T22:52:04.004Z,9.67
2023-05-06T22:54:31.340Z,10.07
2023-05-06T22:56:58.792Z,8.73
2023-05-06T22:59:27.495Z,10.70
2023-05-06T23:01:55.421Z,9.63
2023-05-06T23:04:22.833Z,9.30
2023-05-06T23:06:50.212Z,10.40
2023-05-06T23:09:17.552Z,10.43
2023-05-06T23:11:46.027Z,9.67
2023-05-06T23:14:13.652Z,10.50
2023-05-06T23:16:42.404Z,9.90
2023-05-06T23:19:10.091Z,8.50
2023-05-06T23:21:37.440Z,11.40
2023-05-06T23:24:05.181Z,10.63
2023-05-06T23:26:32.569Z,11.83
2023-05-06T23:28:59.907Z,12.03
2023-05-06T23:31:27.316Z,14.23
2023-05-06T23:33:56.048Z,13.13
2023-05-06T23:36:23.387Z,13.73
2023-05-06T23:38:51.158Z,13.27
2023-05-06T23:41:18.502Z,13.33
2023-05-06T23:43:45.870Z,15.00
2023-05-06T23:46:13.282Z,16.53
2023-05-06T23:48:40.709Z,14.60
2023-05-06T23:51:09.419Z,15.67
2023-05-06T23:53:36.783Z,17.60
2023-05-06T23:56:04.252Z,15.97
2023-05-06T23:58:31.610Z,15.97
